createdAt,value
2023-06-13T22:39:01.768Z,74.7
2023-06-13T22:40:01.321Z,74.5
2023-06-13T22:41:01.299Z,74.3
2023-06-13T22:42:01.765Z,74.3
2023-06-13T22:43:01.306Z,74.3
2023-06-13T22:44:01.312Z,74.3
2023-06-13T22:45:01.897Z,74.5
2023-06-13T22:46:01.837Z,74.5
2023-06-13T22:47:01.711Z,74.7
2023-06-13T22:48:01.347Z,74.7
2023-06-13T22:49:01.915Z,74.7
2023-06-13T22:50:01.678Z,74.7
2023-06-13T22:51:01.321Z,74.7
2023-06-13T22:52:01.662Z,74.7
2023-06-13T22:53:02.170Z,74.7
2023-06-13T22:54:01.626Z,74.7
2023-06-13T22:55:01.491Z,74.7
2023-06-13T22:56:01.648Z,74.7
2023-06-13T22:57:01.681Z,74.5
2023-06-13T22:58:01.632Z,74.5
2023-06-13T22:59:01.716Z,74.5
2023-06-13T23:00:02.348Z,74.5
2023-06-13T23:01:01.743Z,74.5
2023-06-13T23:02:01.505Z,74.5
2023-06-13T23:03:01.344Z,74.5
2023-06-13T23:04:01.398Z,74.1
2023-06-13T23:05:01.331Z,74.1
2023-06-13T23:06:01.649Z,74.1
2023-06-13T23:07:02.220Z,74.1
2023-06-13T23:08:01.804Z,74.1
2023-06-13T23:09:01.756Z,74.1
2023-06-13T23:10:01.359Z,73.9
2023-06-13T23:11:01.476Z,74.1
2023-06-13T23:12:01.673Z,74.1
2023-06-13T23:13:01.630Z,73.9
2023-06-13T23:14:01.322Z,73.9
2023-06-13T23:15:01.540Z,73.9
2023-06-13T23:16:01.743Z,73.9
2023-06-13T23:17:01.328Z,73.9
2023-06-13T23:18:01.424Z,73.9
2023-06-13T23:19:01.633Z,73.9
2023-06-13T23:20:01.701Z,73.9
2023-06-13T23:21:01.665Z,73.9
2023-06-13T23:22:02.001Z,74.1
2023-06-13T23:23:01.345Z,74.1
2023-06-13T23:24:01.344Z,74.1
2023-06-13T23:25:01.552Z,74.1
2023-06-13T23:26:02.004Z,74.1
2023-06-13T23:27:01.350Z,74.1
2023-06-13T23:28:01.318Z,74.1
2023-06-13T23:29:01.321Z,74.3
2023-06-13T23:30:01.771Z,74.3
2023-06-13T23:31:01.305Z,74.3
2023-06-13T23:32:01.354Z,74.3
2023-06-13T23:33:01.920Z,74.3
2023-06-13T23:34:01.734Z,74.3
2023-06-13T23:35:01.384Z,74.3
2023-06-13T23:36:01.632Z,74.1
2023-06-13T23:37:01.878Z,74.1
2023-06-13T23:38:01.725Z,73.9
2023-06-13T23:39:01.718Z,74.1
2023-06-13T23:40:01.357Z,73.9
2023-06-13T23:41:01.312Z,73.9
2023-06-13T23:42:01.306Z,73.9
2023-06-13T23:43:01.343Z,73.9
2023-06-13T23:44:01.588Z,73.9
2023-06-13T23:45:01.336Z,73.9
2023-06-13T23:46:01.306Z,73.9
2023-06-13T23:47:01.369Z,73.9
2023-06-13T23:48:02.361Z,73.9
2023-06-13T23:49:01.304Z,73.9
2023-06-13T23:50:01.358Z,73.9
2023-06-13T23:51:01.323Z,73.9
2023-06-13T23:52:01.714Z,73.9
2023-06-13T23:53:01.685Z,73.8
2023-06-13T23:54:01.643Z,73.8
2023-06-13T23:55:01.578Z,73.8
2023-06-13T23:56:01.685Z,73.8
2023-06-13T23:57:01.327Z,73.6
2023-06-13T23:58:01.311Z,73.6
2023-06-13T23:59:01.655Z,73.4
